LIBQ  Monte Scuro  Airport

Italy

Add Bookmark
ICAO LIBQ
Type Airport
Status Operational
Latitude
39° 19' 12" N
39.320000
Longitude
16° 22' 47" E
16.380000
Local (GMT +2 ) UTC
Aug 26, 2016 03:23 am Aug 26, 2016 01:23
Sunrise-Sunset Local UTC
Begin Civil Twilight 05:49 am 03:49
Sunrise 06:16 am 04:16
Sunset 07:35 pm 17:35
End Civil Twilight 08:03 pm 18:03
VFR
VFR
MVFR
MVFR
IFR
IFR
LIFR
LIFR
Unknown
Unavailable

Current Weather

METAR Observed VFR
LIBQ 252355Z 04025KT CAVOK 12/11 Q1021 Thu, Aug 25, 2016 @ 23:55 UTC
(1 Hour, 28 Minutes ago)
Visual Flight Rules
Wind Visibility Conditions
040° at 25 knots (46 kph) 10 km or more
  • No significant weather
Temperatures Readings Precipitation
Current Temp
12°C
54°F
Dewpoint
11°C
52°F
Humidity 94%
Altimeter 30.15" Hg
Sea Level Pressure 1,021 mb
Field Elevation
1,720 m
5,643 ft
None Recorded

Additional weather within a 92.6km radius of LIBQ

Map ICAO Location
LICA 47.6km S/SW (195°)
LIBC 70.2km E/SE (121°)
VFR
VFR
MVFR
MVFR
IFR
IFR
LIFR
LIFR
Unknown
Unavailable
-
-

CheckWX.com is intended as a tool to help pilots better visualize weather data. It is not intended as a substitute for an official weather briefing obtained from a Flight Service Station. CheckWX.com does not meet the FAA requirements for an official pre-flight weather briefing. Therefore, it's important that pilots still call and obtain an official FSS pre-flight weather briefing.

© 2007-2016 CheckWX.com
01:23:37 UTC